Time;durP1;ratioP1;P1;durP2;ratioP2;P2;SDS_P1;SDS_P2;PMS_P1;PMS_P2;Temp;Humidity;BMP_temperature;BMP_pressure;BME280_temperature;BME280_humidity;BME280_pressure;Samples;Min_cycle;Max_cycle;Signal;HPM_P1;HPM_P2
2024/01/31 00:00:09;;;;;;;3.72;2.70;;;;;;;;;;5030638;28;20476;-54
2024/01/31 00:02:34;;;;;;;3.37;2.53;;;;;;;;;;5026652;28;20047;-54
2024/01/31 00:05:00;;;;;;;4.03;2.97;;;;;;;;;;5028200;28;20500;-53
2024/01/31 00:07:25;;;;;;;3.75;2.60;;;;;;;;;;5026714;28;20029;-54
2024/01/31 00:09:50;;;;;;;3.92;2.72;;;;;;;;;;5026602;28;20022;-54
2024/01/31 00:12:16;;;;;;;4.32;2.85;;;;;;;;;;5026472;28;20096;-53
2024/01/31 00:14:42;;;;;;;4.60;3.10;;;;;;;;;;5026432;28;20021;-53
2024/01/31 00:17:08;;;;;;;4.50;2.90;;;;;;;;;;5026730;28;20037;-53
2024/01/31 00:19:33;;;;;;;4.00;3.00;;;;;;;;;;5008366;28;20030;-53
2024/01/31 00:21:59;;;;;;;5.00;2.83;;;;;;;;;;5025538;28;20063;-54
2024/01/31 00:24:24;;;;;;;3.50;2.92;;;;;;;;;;5026355;28;20047;-53
2024/01/31 00:26:49;;;;;;;3.58;3.00;;;;;;;;;;5025941;28;20029;-53
2024/01/31 00:29:14;;;;;;;4.35;3.10;;;;;;;;;;5026421;28;20072;-53
2024/01/31 00:31:40;;;;;;;4.47;3.10;;;;;;;;;;5025940;28;20464;-53
2024/01/31 00:34:05;;;;;;;3.70;2.70;;;;;;;;;;5026443;28;20061;-53
2024/01/31 00:36:30;;;;;;;3.72;3.00;;;;;;;;;;5026863;28;20071;-53
2024/01/31 00:38:56;;;;;;;4.45;2.67;;;;;;;;;;5026154;28;20072;-53
2024/01/31 00:41:21;;;;;;;3.85;3.00;;;;;;;;;;5026618;28;20022;-54
2024/01/31 00:43:46;;;;;;;4.80;3.17;;;;;;;;;;5025162;28;20120;-53
2024/01/31 00:46:12;;;;;;;5.30;2.90;;;;;;;;;;5026405;28;20448;-53
2024/01/31 00:48:37;;;;;;;5.45;3.53;;;;;;;;;;5026156;28;20498;-53
2024/01/31 00:51:02;;;;;;;4.30;2.95;;;;;;;;;;5026025;28;20034;-53
2024/01/31 00:53:28;;;;;;;4.53;3.30;;;;;;;;;;5025672;28;20423;-53
2024/01/31 00:55:53;;;;;;;4.20;3.30;;;;;;;;;;5025510;28;20025;-54
2024/01/31 00:58:18;;;;;;;4.38;3.20;;;;;;;;;;5025224;28;20021;-54
2024/01/31 01:00:44;;;;;;;4.55;2.97;;;;;;;;;;5025899;28;20034;-54
2024/01/31 01:03:09;;;;;;;3.53;2.90;;;;;;;;;;5025948;28;20021;-53
2024/01/31 01:05:34;;;;;;;5.10;3.25;;;;;;;;;;5025769;28;20029;-53
2024/01/31 01:08:00;;;;;;;5.05;3.30;;;;;;;;;;5025765;28;20033;-54
2024/01/31 01:10:26;;;;;;;5.13;3.42;;;;;;;;;;5025446;28;20025;-54
2024/01/31 01:12:51;;;;;;;4.10;3.13;;;;;;;;;;5025971;28;20041;-54
2024/01/31 01:15:19;;;;;;;5.10;3.10;;;;;;;;;;5023272;28;20034;-54
2024/01/31 01:17:44;;;;;;;5.60;3.20;;;;;;;;;;5017628;28;20037;-54
2024/01/31 01:20:09;;;;;;;4.35;3.13;;;;;;;;;;5016935;28;20049;-54
2024/01/31 01:22:35;;;;;;;4.95;3.20;;;;;;;;;;5020088;28;20033;-53
2024/01/31 01:25:00;;;;;;;4.78;3.40;;;;;;;;;;5026469;28;20029;-54
2024/01/31 01:27:25;;;;;;;4.43;3.38;;;;;;;;;;5026564;28;20038;-54
2024/01/31 01:29:51;;;;;;;5.05;3.53;;;;;;;;;;5025727;28;20052;-53
2024/01/31 01:32:16;;;;;;;7.20;3.63;;;;;;;;;;5025860;28;20041;-54
2024/01/31 01:34:41;;;;;;;5.07;3.50;;;;;;;;;;5025272;28;20409;-54
2024/01/31 01:37:07;;;;;;;4.45;3.08;;;;;;;;;;5024478;28;20030;-55
2024/01/31 01:39:33;;;;;;;4.15;3.13;;;;;;;;;;5025259;28;20505;-53
2024/01/31 01:41:59;;;;;;;5.10;3.63;;;;;;;;;;5023842;28;20040;-53
2024/01/31 01:44:24;;;;;;;4.88;3.45;;;;;;;;;;5025321;28;20037;-54
2024/01/31 01:46:50;;;;;;;4.97;3.47;;;;;;;;;;5026015;28;20121;-54
2024/01/31 01:49:15;;;;;;;5.38;3.22;;;;;;;;;;5012205;28;20041;-53
2024/01/31 01:51:40;;;;;;;5.03;3.60;;;;;;;;;;5008116;28;20068;-54
2024/01/31 01:54:05;;;;;;;5.15;3.78;;;;;;;;;;5024250;28;20111;-54
2024/01/31 01:56:31;;;;;;;5.00;3.72;;;;;;;;;;5025121;28;20038;-54
2024/01/31 01:58:56;;;;;;;4.97;3.67;;;;;;;;;;5023753;28;20064;-53
2024/01/31 02:01:21;;;;;;;4.85;3.53;;;;;;;;;;5030023;28;20056;-54
2024/01/31 02:03:47;;;;;;;4.70;3.35;;;;;;;;;;5023793;28;20026;-54
2024/01/31 02:06:12;;;;;;;5.15;3.85;;;;;;;;;;5008593;28;21207;-53
2024/01/31 02:08:37;;;;;;;4.22;3.50;;;;;;;;;;5025587;28;20470;-53
2024/01/31 02:11:03;;;;;;;5.25;3.67;;;;;;;;;;5031265;28;20040;-52
2024/01/31 02:13:28;;;;;;;4.78;3.42;;;;;;;;;;5033159;28;20022;-53
2024/01/31 02:15:54;;;;;;;5.50;3.50;;;;;;;;;;5024468;28;20041;-55
2024/01/31 02:18:20;;;;;;;5.43;3.80;;;;;;;;;;5024566;28;20531;-53
2024/01/31 02:20:46;;;;;;;4.68;3.42;;;;;;;;;;5025315;28;20689;-53
2024/01/31 02:23:11;;;;;;;5.15;3.40;;;;;;;;;;5026457;28;20175;-54
2024/01/31 02:25:36;;;;;;;5.07;3.85;;;;;;;;;;5006973;28;20037;-54
2024/01/31 02:28:02;;;;;;;5.43;3.70;;;;;;;;;;5019679;28;20045;-54
2024/01/31 02:30:27;;;;;;;5.90;3.75;;;;;;;;;;5029758;28;20049;-52
2024/01/31 02:32:54;;;;;;;5.53;3.53;;;;;;;;;;5037114;28;20044;-53
2024/01/31 02:35:19;;;;;;;4.97;3.72;;;;;;;;;;5024313;28;20037;-53
2024/01/31 02:37:44;;;;;;;6.07;3.85;;;;;;;;;;5024814;28;20431;-53
2024/01/31 02:40:10;;;;;;;5.15;3.75;;;;;;;;;;5024962;28;20064;-53
2024/01/31 02:42:35;;;;;;;5.35;4.28;;;;;;;;;;5025096;28;20514;-55
2024/01/31 02:45:01;;;;;;;5.18;3.55;;;;;;;;;;5024775;28;20571;-53
2024/01/31 02:47:26;;;;;;;4.88;3.55;;;;;;;;;;5024955;28;20041;-53
2024/01/31 02:49:51;;;;;;;5.32;4.13;;;;;;;;;;5025182;28;20040;-53
2024/01/31 02:52:16;;;;;;;4.82;3.42;;;;;;;;;;5025641;28;20037;-54
2024/01/31 02:54:42;;;;;;;5.60;3.38;;;;;;;;;;5024885;28;20052;-53
2024/01/31 02:57:07;;;;;;;5.13;3.80;;;;;;;;;;5013758;28;20064;-54
2024/01/31 02:59:33;;;;;;;5.78;4.00;;;;;;;;;;5024862;28;20041;-54
2024/01/31 03:01:58;;;;;;;5.30;3.55;;;;;;;;;;5007459;28;20045;-53
2024/01/31 03:04:24;;;;;;;5.35;3.65;;;;;;;;;;5024988;28;20060;-53
2024/01/31 03:06:49;;;;;;;5.65;4.05;;;;;;;;;;5026955;28;20029;-53
2024/01/31 03:09:15;;;;;;;5.20;3.75;;;;;;;;;;5027794;28;20117;-54
2024/01/31 03:11:40;;;;;;;4.88;3.85;;;;;;;;;;5028263;28;20471;-53
2024/01/31 03:14:05;;;;;;;5.43;3.83;;;;;;;;;;5028431;28;20254;-54
2024/01/31 03:16:31;;;;;;;5.28;3.83;;;;;;;;;;5028315;28;20041;-53
2024/01/31 03:18:58;;;;;;;5.47;3.72;;;;;;;;;;5027972;28;20136;-53
2024/01/31 03:21:23;;;;;;;5.20;3.92;;;;;;;;;;5028437;28;20077;-54
2024/01/31 03:23:49;;;;;;;4.88;3.60;;;;;;;;;;5030060;28;20439;-54
2024/01/31 03:26:14;;;;;;;5.22;3.50;;;;;;;;;;5027803;28;20026;-54
2024/01/31 03:28:40;;;;;;;5.70;4.10;;;;;;;;;;5009856;28;20036;-54
2024/01/31 03:31:05;;;;;;;6.15;4.10;;;;;;;;;;5028107;28;20123;-53
2024/01/31 03:33:30;;;;;;;5.57;4.10;;;;;;;;;;5028653;28;20088;-53
2024/01/31 03:35:57;;;;;;;5.25;3.75;;;;;;;;;;5027842;28;20040;-54
2024/01/31 03:38:22;;;;;;;5.85;4.07;;;;;;;;;;5026606;28;20735;-54
2024/01/31 03:40:47;;;;;;;5.22;3.83;;;;;;;;;;5028375;28;20499;-54
2024/01/31 03:43:13;;;;;;;5.60;4.18;;;;;;;;;;5028394;28;20095;-54
2024/01/31 03:45:38;;;;;;;5.18;3.70;;;;;;;;;;5027815;28;20487;-53
2024/01/31 03:48:03;;;;;;;5.53;3.90;;;;;;;;;;5028226;28;20539;-53
2024/01/31 03:50:29;;;;;;;5.78;3.78;;;;;;;;;;5028477;28;20469;-53
2024/01/31 03:52:54;;;;;;;6.32;3.97;;;;;;;;;;5028053;28;20484;-53
2024/01/31 03:55:19;;;;;;;6.80;4.03;;;;;;;;;;5027637;28;20104;-52
2024/01/31 03:57:45;;;;;;;5.28;3.72;;;;;;;;;;5028296;28;20060;-53
2024/01/31 04:00:11;;;;;;;6.00;4.25;;;;;;;;;;5027878;28;20041;-53
2024/01/31 04:02:36;;;;;;;5.35;4.03;;;;;;;;;;5027284;28;20060;-53
2024/01/31 04:05:02;;;;;;;5.90;3.75;;;;;;;;;;5026970;28;20060;-53
2024/01/31 04:07:28;;;;;;;5.63;4.05;;;;;;;;;;5027186;28;20042;-53
2024/01/31 04:09:53;;;;;;;5.82;3.97;;;;;;;;;;5026589;28;20604;-54
2024/01/31 04:12:18;;;;;;;5.50;4.15;;;;;;;;;;5026783;28;20029;-54
2024/01/31 04:14:43;;;;;;;5.43;3.95;;;;;;;;;;5027009;28;20041;-53
2024/01/31 04:17:09;;;;;;;4.70;3.60;;;;;;;;;;5026141;28;20052;-53
2024/01/31 04:19:34;;;;;;;5.18;4.00;;;;;;;;;;5025689;28;20098;-53
2024/01/31 04:21:59;;;;;;;5.47;4.00;;;;;;;;;;5027265;28;20037;-53
2024/01/31 04:24:25;;;;;;;5.57;4.18;;;;;;;;;;5027267;28;20471;-54
2024/01/31 04:26:50;;;;;;;5.55;3.92;;;;;;;;;;5027680;28;20026;-53
2024/01/31 04:29:16;;;;;;;5.18;3.78;;;;;;;;;;5034875;28;20514;-54
2024/01/31 04:31:42;;;;;;;5.78;4.20;;;;;;;;;;5029628;28;20114;-53
2024/01/31 04:34:08;;;;;;;5.68;4.18;;;;;;;;;;5026515;28;20112;-54
2024/01/31 04:36:33;;;;;;;5.82;4.35;;;;;;;;;;5026590;28;20136;-55
2024/01/31 04:38:59;;;;;;;4.97;3.78;;;;;;;;;;5026864;28;20121;-54
2024/01/31 04:41:24;;;;;;;5.72;4.13;;;;;;;;;;5008858;28;20117;-54
2024/01/31 04:43:49;;;;;;;6.07;4.35;;;;;;;;;;5027305;28;20626;-55
2024/01/31 04:46:15;;;;;;;4.95;4.10;;;;;;;;;;5026458;28;20033;-54
2024/01/31 04:48:40;;;;;;;5.35;4.00;;;;;;;;;;5027164;28;20101;-55
2024/01/31 04:51:05;;;;;;;5.38;4.00;;;;;;;;;;5026854;28;20037;-54
2024/01/31 04:53:31;;;;;;;5.13;3.72;;;;;;;;;;5027438;28;20537;-54
2024/01/31 04:55:56;;;;;;;6.18;4.47;;;;;;;;;;5025602;28;20048;-54
2024/01/31 04:58:21;;;;;;;5.38;3.60;;;;;;;;;;5026156;28;20037;-54
2024/01/31 05:00:47;;;;;;;5.50;3.90;;;;;;;;;;5025087;28;20045;-54
2024/01/31 05:03:12;;;;;;;5.22;3.90;;;;;;;;;;5026989;28;20030;-54
2024/01/31 05:05:38;;;;;;;5.15;4.05;;;;;;;;;;5025797;28;20052;-54
2024/01/31 05:08:03;;;;;;;5.07;3.97;;;;;;;;;;5021758;28;20038;-55
2024/01/31 05:10:32;;;;;;;5.82;4.22;;;;;;;;;;5026089;28;20116;-54
2024/01/31 05:12:57;;;;;;;5.55;4.00;;;;;;;;;;5025863;28;20263;-52
2024/01/31 05:15:22;;;;;;;5.68;4.10;;;;;;;;;;5022750;28;20455;-55
2024/01/31 05:17:47;;;;;;;4.95;3.90;;;;;;;;;;5025890;28;20480;-54
2024/01/31 05:20:13;;;;;;;6.70;4.28;;;;;;;;;;5025346;28;20077;-54
2024/01/31 05:22:38;;;;;;;6.65;3.78;;;;;;;;;;5027239;28;20094;-53
2024/01/31 05:25:05;;;;;;;6.00;4.20;;;;;;;;;;5025913;28;20032;-54
2024/01/31 05:27:30;;;;;;;6.03;4.00;;;;;;;;;;5021558;28;20030;-55
2024/01/31 05:29:56;;;;;;;4.95;3.90;;;;;;;;;;5018935;28;20047;-55
2024/01/31 05:32:21;;;;;;;5.47;4.05;;;;;;;;;;5024110;28;20167;-54
2024/01/31 05:34:46;;;;;;;5.72;4.00;;;;;;;;;;5025386;28;20048;-55
2024/01/31 05:37:12;;;;;;;4.80;4.00;;;;;;;;;;5023487;28;20065;-55
2024/01/31 05:39:37;;;;;;;4.93;3.88;;;;;;;;;;5027564;28;20045;-54
2024/01/31 05:42:02;;;;;;;5.70;3.92;;;;;;;;;;5024708;28;20503;-54
2024/01/31 05:44:28;;;;;;;6.45;4.28;;;;;;;;;;5023646;28;20116;-54
2024/01/31 05:46:53;;;;;;;5.05;3.72;;;;;;;;;;5020822;28;20475;-54
2024/01/31 05:49:18;;;;;;;5.60;3.80;;;;;;;;;;5023824;28;20120;-55
2024/01/31 05:51:44;;;;;;;5.90;4.20;;;;;;;;;;5021097;28;20048;-55
2024/01/31 05:54:09;;;;;;;6.10;4.20;;;;;;;;;;5025756;28;20045;-55
2024/01/31 05:56:37;;;;;;;6.93;4.32;;;;;;;;;;5026730;28;20092;-57
2024/01/31 05:59:02;;;;;;;5.40;4.38;;;;;;;;;;5025287;28;20045;-55
2024/01/31 06:01:27;;;;;;;6.40;4.15;;;;;;;;;;5027417;28;20472;-54
2024/01/31 06:03:52;;;;;;;5.30;4.22;;;;;;;;;;5022506;28;20045;-56
2024/01/31 06:06:18;;;;;;;5.50;3.97;;;;;;;;;;5018954;28;20448;-55
2024/01/31 06:08:43;;;;;;;6.30;4.43;;;;;;;;;;5026706;28;20033;-54
2024/01/31 06:11:08;;;;;;;6.55;4.18;;;;;;;;;;5024528;28;20499;-54
2024/01/31 06:13:34;;;;;;;5.57;3.85;;;;;;;;;;5005208;28;20045;-55
2024/01/31 06:15:59;;;;;;;5.75;4.22;;;;;;;;;;5021133;28;20034;-54
2024/01/31 06:18:25;;;;;;;5.05;4.07;;;;;;;;;;5023869;28;20049;-54
2024/01/31 06:20:50;;;;;;;6.20;4.15;;;;;;;;;;5025080;28;20938;-55
2024/01/31 06:23:16;;;;;;;5.85;4.15;;;;;;;;;;5021785;28;20194;-54
2024/01/31 06:25:41;;;;;;;5.72;4.10;;;;;;;;;;5006444;28;21688;-55
2024/01/31 06:28:06;;;;;;;6.95;4.30;;;;;;;;;;5023680;28;20114;-55
2024/01/31 06:30:41;;;;;;;7.00;4.47;;;;;;;;;;5023923;28;20132;-56
2024/01/31 06:33:07;;;;;;;5.50;4.35;;;;;;;;;;5005247;28;20199;-56
2024/01/31 06:35:35;;;;;;;6.35;3.83;;;;;;;;;;5025826;28;20040;-55
2024/01/31 06:38:04;;;;;;;6.00;4.28;;;;;;;;;;5006288;28;20038;-57
2024/01/31 06:40:33;;;;;;;7.03;4.00;;;;;;;;;;5025580;28;20796;-56
2024/01/31 06:42:58;;;;;;;6.03;4.60;;;;;;;;;;5028399;28;20041;-56
2024/01/31 06:45:26;;;;;;;6.55;4.70;;;;;;;;;;5026239;28;20045;-56
2024/01/31 06:47:52;;;;;;;5.80;4.40;;;;;;;;;;5029296;28;20041;-54
2024/01/31 06:50:17;;;;;;;15.32;8.98;;;;;;;;;;5028138;28;20048;-55
2024/01/31 06:52:43;;;;;;;8.15;5.07;;;;;;;;;;5025268;28;20578;-54
2024/01/31 06:55:09;;;;;;;6.90;5.28;;;;;;;;;;5029094;28;20466;-55
2024/01/31 06:57:34;;;;;;;7.57;5.28;;;;;;;;;;5024068;28;20469;-56
2024/01/31 07:00:00;;;;;;;8.45;5.15;;;;;;;;;;5026585;28;20121;-54
2024/01/31 07:02:26;;;;;;;7.28;4.55;;;;;;;;;;5013072;28;20033;-55
2024/01/31 07:04:51;;;;;;;7.35;4.78;;;;;;;;;;5023203;28;20521;-55
2024/01/31 07:07:16;;;;;;;6.88;4.65;;;;;;;;;;5028521;28;20373;-55
2024/01/31 07:09:42;;;;;;;6.65;4.97;;;;;;;;;;5024466;28;20061;-55
2024/01/31 07:12:07;;;;;;;6.88;5.22;;;;;;;;;;5028772;28;20468;-56
2024/01/31 07:14:32;;;;;;;6.00;4.70;;;;;;;;;;5028026;28;20087;-57
2024/01/31 07:16:58;;;;;;;6.53;4.95;;;;;;;;;;5028571;28;20045;-56
2024/01/31 07:19:23;;;;;;;6.80;4.95;;;;;;;;;;5029117;28;20095;-57
2024/01/31 07:21:48;;;;;;;6.30;4.85;;;;;;;;;;5026673;28;20041;-57
2024/01/31 07:24:14;;;;;;;7.00;5.07;;;;;;;;;;5025717;28;20049;-56
2024/01/31 07:26:39;;;;;;;7.35;5.03;;;;;;;;;;5019037;28;20041;-57
2024/01/31 07:29:08;;;;;;;6.90;4.65;;;;;;;;;;5025479;28;20046;-57
2024/01/31 07:31:33;;;;;;;7.68;4.80;;;;;;;;;;5027729;28;20068;-56
2024/01/31 07:33:58;;;;;;;7.90;5.25;;;;;;;;;;5031588;28;20514;-55
2024/01/31 07:36:24;;;;;;;5.88;4.28;;;;;;;;;;5025598;28;20052;-55
2024/01/31 07:38:49;;;;;;;6.13;4.22;;;;;;;;;;5022970;28;20053;-54
2024/01/31 07:41:14;;;;;;;6.07;4.65;;;;;;;;;;5018276;28;20517;-58
2024/01/31 07:43:40;;;;;;;7.45;4.55;;;;;;;;;;5015552;28;20041;-56
2024/01/31 07:46:05;;;;;;;7.85;4.60;;;;;;;;;;5018643;28;20040;-58
2024/01/31 07:48:31;;;;;;;6.53;4.75;;;;;;;;;;5021100;28;20038;-59
2024/01/31 07:50:56;;;;;;;7.25;5.30;;;;;;;;;;5019703;28;20396;-56
2024/01/31 07:53:21;;;;;;;5.90;4.68;;;;;;;;;;5021096;28;20042;-55
2024/01/31 07:55:47;;;;;;;7.45;5.32;;;;;;;;;;5019321;28;20049;-56
2024/01/31 07:58:12;;;;;;;8.50;5.20;;;;;;;;;;5018124;28;20136;-58
2024/01/31 08:00:38;;;;;;;6.88;5.13;;;;;;;;;;5019007;28;20076;-58
2024/01/31 08:03:03;;;;;;;7.47;5.22;;;;;;;;;;5019926;28;20507;-58
2024/01/31 08:05:29;;;;;;;8.20;5.75;;;;;;;;;;5019498;28;20034;-57
2024/01/31 08:07:54;;;;;;;7.25;5.07;;;;;;;;;;5019621;28;20033;-57
2024/01/31 08:10:19;;;;;;;6.55;5.32;;;;;;;;;;5019176;28;20660;-56
2024/01/31 08:12:46;;;;;;;7.45;5.30;;;;;;;;;;5019015;28;20033;-57
2024/01/31 08:15:12;;;;;;;8.27;5.57;;;;;;;;;;5019034;28;20048;-56
2024/01/31 08:17:37;;;;;;;7.78;5.47;;;;;;;;;;5018884;28;20033;-58
2024/01/31 08:20:03;;;;;;;7.82;5.53;;;;;;;;;;5018102;28;20145;-60
2024/01/31 08:22:29;;;;;;;9.15;6.10;;;;;;;;;;5018921;28;20045;-58
2024/01/31 08:24:54;;;;;;;7.85;5.90;;;;;;;;;;5019009;28;20084;-56
2024/01/31 08:27:20;;;;;;;8.07;5.80;;;;;;;;;;5021498;28;20037;-55
2024/01/31 08:29:45;;;;;;;7.32;5.45;;;;;;;;;;4978602;28;1215620;-55
2024/01/31 08:32:10;;;;;;;8.45;5.53;;;;;;;;;;5024755;28;20529;-55
2024/01/31 08:34:36;;;;;;;8.85;6.40;;;;;;;;;;5019688;28;20542;-56
2024/01/31 08:37:02;;;;;;;7.90;6.50;;;;;;;;;;5018096;28;20037;-59
2024/01/31 08:39:29;;;;;;;8.07;6.20;;;;;;;;;;5018094;28;20077;-59
2024/01/31 08:41:54;;;;;;;9.27;6.55;;;;;;;;;;5019335;28;21240;-55
2024/01/31 08:44:20;;;;;;;8.88;6.80;;;;;;;;;;5021906;28;20511;-56
2024/01/31 08:46:45;;;;;;;8.32;6.13;;;;;;;;;;5020405;28;20021;-58
2024/01/31 08:49:10;;;;;;;8.20;6.68;;;;;;;;;;5019707;28;20045;-57
2024/01/31 08:51:38;;;;;;;7.97;5.63;;;;;;;;;;5018312;28;20064;-57
2024/01/31 08:54:03;;;;;;;7.97;6.10;;;;;;;;;;5018964;28;20053;-56
2024/01/31 08:56:28;;;;;;;8.63;6.40;;;;;;;;;;5018288;28;20030;-56
2024/01/31 08:58:54;;;;;;;9.57;6.68;;;;;;;;;;5020308;28;20048;-56
2024/01/31 09:01:20;;;;;;;9.40;6.47;;;;;;;;;;5020499;28;20037;-56
2024/01/31 09:03:45;;;;;;;9.85;6.63;;;;;;;;;;5017625;28;20033;-57
2024/01/31 09:06:10;;;;;;;9.65;6.63;;;;;;;;;;5017320;28;20407;-57
2024/01/31 09:08:36;;;;;;;10.23;6.97;;;;;;;;;;5016137;28;20049;-57
2024/01/31 09:11:02;;;;;;;9.48;6.88;;;;;;;;;;5025322;28;20056;-58
2024/01/31 09:13:27;;;;;;;8.35;6.43;;;;;;;;;;5009245;28;20048;-57
2024/01/31 09:15:54;;;;;;;10.43;7.28;;;;;;;;;;5026278;28;20514;-57
2024/01/31 09:18:19;;;;;;;9.77;7.00;;;;;;;;;;5025479;28;20460;-56
2024/01/31 09:20:44;;;;;;;9.15;7.00;;;;;;;;;;5026328;28;20052;-57
2024/01/31 09:23:10;;;;;;;8.90;6.43;;;;;;;;;;5025322;28;20073;-56
2024/01/31 09:25:35;;;;;;;10.25;7.20;;;;;;;;;;5026326;28;20083;-57
2024/01/31 09:28:00;;;;;;;8.00;6.13;;;;;;;;;;5016381;28;20045;-57
2024/01/31 09:30:26;;;;;;;9.57;6.22;;;;;;;;;;5025962;28;20038;-58
2024/01/31 09:32:51;;;;;;;8.77;6.50;;;;;;;;;;5026701;28;20479;-59
2024/01/31 09:35:16;;;;;;;8.98;6.65;;;;;;;;;;5026574;28;20064;-57
2024/01/31 09:37:42;;;;;;;7.78;6.10;;;;;;;;;;5027304;28;20037;-58
2024/01/31 09:40:07;;;;;;;8.02;6.57;;;;;;;;;;5027594;28;20124;-57
2024/01/31 09:42:33;;;;;;;8.98;6.70;;;;;;;;;;5030583;28;20492;-57
2024/01/31 09:44:58;;;;;;;8.70;7.00;;;;;;;;;;5008228;28;20048;-59
2024/01/31 09:47:25;;;;;;;8.70;6.68;;;;;;;;;;5025335;28;20195;-55
2024/01/31 09:49:51;;;;;;;10.60;7.25;;;;;;;;;;5029351;28;20673;-59
2024/01/31 09:52:17;;;;;;;10.13;7.20;;;;;;;;;;5025907;28;20029;-57
2024/01/31 09:54:42;;;;;;;8.90;6.82;;;;;;;;;;5039203;28;20024;-54
2024/01/31 09:57:08;;;;;;;9.85;7.40;;;;;;;;;;5016169;28;20033;-57
2024/01/31 09:59:33;;;;;;;9.85;7.50;;;;;;;;;;5009547;28;20069;-57
2024/01/31 10:01:58;;;;;;;8.32;6.38;;;;;;;;;;5029597;28;20034;-54
2024/01/31 10:04:24;;;;;;;10.35;7.05;;;;;;;;;;4985470;28;20468;-57
2024/01/31 10:09:32;;;;;;;11.85;7.32;;;;;;;;;;5025077;28;20041;-55
2024/01/31 10:11:58;;;;;;;12.07;7.85;;;;;;;;;;5025344;28;20037;-59
2024/01/31 10:14:24;;;;;;;9.23;7.10;;;;;;;;;;5009018;28;20147;-57
2024/01/31 10:16:49;;;;;;;9.50;6.78;;;;;;;;;;5027091;28;20026;-58
2024/01/31 10:19:15;;;;;;;9.32;7.28;;;;;;;;;;5030026;28;20052;-58
2024/01/31 10:21:40;;;;;;;10.30;7.45;;;;;;;;;;5028943;28;20049;-58
2024/01/31 10:24:06;;;;;;;10.98;7.55;;;;;;;;;;5028815;28;20830;-56
2024/01/31 10:26:33;;;;;;;9.65;7.50;;;;;;;;;;5029919;28;20523;-56
2024/01/31 10:28:59;;;;;;;10.90;8.27;;;;;;;;;;5029415;28;20430;-57
2024/01/31 10:31:24;;;;;;;10.07;7.05;;;;;;;;;;5027595;28;20196;-58
2024/01/31 10:33:49;;;;;;;9.88;7.25;;;;;;;;;;5024680;28;20147;-58
2024/01/31 10:36:15;;;;;;;9.32;7.38;;;;;;;;;;5028493;28;20396;-58
2024/01/31 10:38:40;;;;;;;10.93;7.32;;;;;;;;;;5011106;28;20029;-57
2024/01/31 10:41:08;;;;;;;11.45;7.90;;;;;;;;;;5026764;28;20061;-56
2024/01/31 10:43:34;;;;;;;11.18;7.53;;;;;;;;;;5029187;28;20037;-59
2024/01/31 10:46:00;;;;;;;10.38;7.90;;;;;;;;;;5029030;28;20029;-59
2024/01/31 10:48:25;;;;;;;11.77;7.80;;;;;;;;;;5028704;28;20404;-59
2024/01/31 10:50:51;;;;;;;11.68;7.80;;;;;;;;;;5008216;28;20038;-58
2024/01/31 10:53:16;;;;;;;10.00;7.57;;;;;;;;;;5020967;28;20042;-58
2024/01/31 10:55:41;;;;;;;11.68;7.97;;;;;;;;;;5025854;28;20463;-58
2024/01/31 10:58:06;;;;;;;13.95;8.40;;;;;;;;;;5028034;28;20030;-66
2024/01/31 11:00:32;;;;;;;13.63;7.78;;;;;;;;;;5011304;28;20060;-59
2024/01/31 11:02:57;;;;;;;13.65;7.72;;;;;;;;;;5029094;28;20085;-57
2024/01/31 11:05:26;;;;;;;12.30;8.35;;;;;;;;;;5024443;28;20414;-57
2024/01/31 11:07:52;;;;;;;13.32;7.93;;;;;;;;;;5028755;28;20542;-59
2024/01/31 11:10:17;;;;;;;12.07;8.50;;;;;;;;;;5018278;28;20030;-59
2024/01/31 11:12:43;;;;;;;11.90;8.15;;;;;;;;;;5023332;28;20033;-60
2024/01/31 11:15:08;;;;;;;11.27;8.38;;;;;;;;;;5028170;28;20049;-60
2024/01/31 11:17:34;;;;;;;13.10;8.50;;;;;;;;;;5025340;28;20038;-59
2024/01/31 11:20:00;;;;;;;10.20;8.50;;;;;;;;;;5010895;28;20483;-60
2024/01/31 11:22:26;;;;;;;11.85;8.57;;;;;;;;;;5028987;28;20033;-59
2024/01/31 11:24:53;;;;;;;11.43;8.30;;;;;;;;;;5028781;28;20469;-57
2024/01/31 11:27:18;;;;;;;10.70;8.10;;;;;;;;;;5028390;28;20184;-59
2024/01/31 11:29:46;;;;;;;10.05;7.70;;;;;;;;;;5028648;28;20132;-59
2024/01/31 11:32:11;;;;;;;12.43;8.82;;;;;;;;;;5028225;28;20033;-56
2024/01/31 11:34:36;;;;;;;12.23;8.38;;;;;;;;;;5028370;28;20048;-57
2024/01/31 11:37:02;;;;;;;10.05;7.80;;;;;;;;;;5026871;28;20046;-57
2024/01/31 11:39:27;;;;;;;11.40;8.55;;;;;;;;;;5028795;28;20045;-57
2024/01/31 11:41:54;;;;;;;10.52;8.38;;;;;;;;;;5028092;28;20417;-58
2024/01/31 11:44:19;;;;;;;11.20;8.48;;;;;;;;;;5028176;28;20112;-57
2024/01/31 11:46:44;;;;;;;10.68;8.02;;;;;;;;;;5011655;28;20507;-58
2024/01/31 11:49:10;;;;;;;11.07;8.65;;;;;;;;;;5028701;28;20040;-57
2024/01/31 11:51:35;;;;;;;11.23;8.10;;;;;;;;;;5024965;28;20408;-55
2024/01/31 11:54:00;;;;;;;10.60;8.30;;;;;;;;;;5024386;28;20489;-56
2024/01/31 11:56:26;;;;;;;11.85;8.32;;;;;;;;;;5028092;28;20058;-56
2024/01/31 11:58:51;;;;;;;10.43;8.13;;;;;;;;;;5027664;28;20053;-57
2024/01/31 12:01:17;;;;;;;10.77;8.40;;;;;;;;;;5026814;28;20836;-57
2024/01/31 12:03:43;;;;;;;12.73;8.50;;;;;;;;;;5024709;28;20034;-56
2024/01/31 12:06:09;;;;;;;11.77;8.70;;;;;;;;;;5026866;28;20041;-56
2024/01/31 12:08:34;;;;;;;13.35;8.73;;;;;;;;;;5028315;28;20427;-56
2024/01/31 12:10:59;;;;;;;9.98;8.00;;;;;;;;;;5028191;28;20065;-55
2024/01/31 12:13:25;;;;;;;10.75;8.75;;;;;;;;;;5010215;28;20452;-55
2024/01/31 12:15:50;;;;;;;11.25;8.25;;;;;;;;;;5028613;28;20415;-56
2024/01/31 12:18:15;;;;;;;11.32;8.32;;;;;;;;;;5027698;28;20033;-57
2024/01/31 12:20:41;;;;;;;10.55;8.70;;;;;;;;;;5027882;28;20564;-59
2024/01/31 12:23:06;;;;;;;11.50;8.57;;;;;;;;;;5027413;28;20033;-58
2024/01/31 12:25:31;;;;;;;11.30;8.90;;;;;;;;;;5027895;28;20037;-59
2024/01/31 12:27:57;;;;;;;10.43;7.80;;;;;;;;;;5027098;28;20868;-59
2024/01/31 12:30:22;;;;;;;11.82;8.60;;;;;;;;;;5027533;28;20169;-59
2024/01/31 12:32:47;;;;;;;11.93;8.07;;;;;;;;;;5027378;28;20408;-58
2024/01/31 12:35:13;;;;;;;11.27;8.93;;;;;;;;;;5026629;28;20132;-59
2024/01/31 12:37:39;;;;;;;10.00;7.78;;;;;;;;;;5027204;28;20131;-58
2024/01/31 12:40:06;;;;;;;10.80;8.70;;;;;;;;;;5026371;28;20084;-58
2024/01/31 12:42:31;;;;;;;10.63;7.78;;;;;;;;;;5027861;28;20911;-57
2024/01/31 12:44:57;;;;;;;10.68;8.07;;;;;;;;;;5029709;28;20140;-56
2024/01/31 12:47:22;;;;;;;11.00;8.88;;;;;;;;;;5030916;28;20026;-58
2024/01/31 12:49:48;;;;;;;10.70;8.77;;;;;;;;;;5029690;28;20038;-59
2024/01/31 12:52:14;;;;;;;11.75;8.45;;;;;;;;;;5030086;28;20041;-56
2024/01/31 12:54:40;;;;;;;10.88;8.35;;;;;;;;;;5029002;28;20048;-57
2024/01/31 12:57:05;;;;;;;10.93;8.35;;;;;;;;;;5031690;28;20120;-57
2024/01/31 12:59:30;;;;;;;10.90;8.52;;;;;;;;;;5029688;28;20548;-58
2024/01/31 13:01:56;;;;;;;10.00;7.88;;;;;;;;;;5029272;28;20061;-56
2024/01/31 13:04:25;;;;;;;10.57;8.00;;;;;;;;;;5028955;28;20093;-57
2024/01/31 13:06:50;;;;;;;10.63;8.35;;;;;;;;;;5028494;28;20025;-57
2024/01/31 13:09:15;;;;;;;9.85;7.70;;;;;;;;;;5012026;28;20099;-58
2024/01/31 13:11:41;;;;;;;11.07;8.95;;;;;;;;;;5029034;28;20080;-56
2024/01/31 13:14:07;;;;;;;10.90;8.45;;;;;;;;;;5029321;28;20033;-58
2024/01/31 13:16:36;;;;;;;10.60;8.18;;;;;;;;;;5029297;28;20029;-57
2024/01/31 13:19:01;;;;;;;9.93;8.07;;;;;;;;;;5031346;28;20168;-57
2024/01/31 13:21:27;;;;;;;23.60;17.10;;;;;;;;;;5030692;28;20037;-57
2024/01/31 13:23:55;;;;;;;14.27;10.13;;;;;;;;;;5028623;28;20052;-57
2024/01/31 13:26:21;;;;;;;11.43;8.55;;;;;;;;;;5046406;28;20335;-59
2024/01/31 13:28:47;;;;;;;11.80;9.30;;;;;;;;;;5018971;28;20454;-57
2024/01/31 13:31:19;;;;;;;11.75;8.40;;;;;;;;;;5050001;28;20036;-60
2024/01/31 13:33:44;;;;;;;11.63;8.95;;;;;;;;;;5031043;28;20041;-57
2024/01/31 13:36:11;;;;;;;14.93;9.95;;;;;;;;;;5028269;28;20383;-56
2024/01/31 13:38:36;;;;;;;13.55;9.13;;;;;;;;;;5029148;28;20032;-57
2024/01/31 13:41:01;;;;;;;11.70;8.77;;;;;;;;;;5016222;28;20029;-57
2024/01/31 13:43:27;;;;;;;10.68;8.35;;;;;;;;;;5017344;28;20025;-58
2024/01/31 13:45:52;;;;;;;14.40;8.98;;;;;;;;;;5016959;28;20029;-58
2024/01/31 13:48:26;;;;;;;11.13;8.35;;;;;;;;;;5028057;28;20022;-59
2024/01/31 13:50:52;;;;;;;12.07;8.57;;;;;;;;;;5027258;28;20041;-60
2024/01/31 13:53:17;;;;;;;12.63;9.07;;;;;;;;;;5028019;28;20052;-60
2024/01/31 13:55:42;;;;;;;11.18;8.82;;;;;;;;;;5028607;28;20057;-57
2024/01/31 13:58:08;;;;;;;11.30;8.73;;;;;;;;;;5027371;28;20042;-56
2024/01/31 14:00:33;;;;;;;13.55;8.57;;;;;;;;;;5029379;28;20461;-59
2024/01/31 14:02:58;;;;;;;11.37;8.73;;;;;;;;;;5028719;28;20045;-56
2024/01/31 14:05:24;;;;;;;12.38;9.30;;;;;;;;;;5028928;28;20331;-58
2024/01/31 14:07:49;;;;;;;10.73;8.65;;;;;;;;;;5028824;28;20052;-57
2024/01/31 14:10:14;;;;;;;12.48;8.48;;;;;;;;;;5028051;28;20037;-60
2024/01/31 14:12:40;;;;;;;13.23;8.25;;;;;;;;;;5029707;28;20132;-58
2024/01/31 14:15:05;;;;;;;11.88;7.93;;;;;;;;;;5027823;28;20045;-56
2024/01/31 14:17:40;;;;;;;11.07;8.95;;;;;;;;;;5027925;28;20410;-59
2024/01/31 14:20:05;;;;;;;11.65;8.27;;;;;;;;;;5027128;28;20061;-58
2024/01/31 14:22:36;;;;;;;31.33;16.88;;;;;;;;;;5028570;28;20052;-57
2024/01/31 14:25:03;;;;;;;12.95;9.85;;;;;;;;;;5027311;28;20112;-57
2024/01/31 14:27:28;;;;;;;12.88;8.40;;;;;;;;;;5023478;28;20581;-56
2024/01/31 14:29:53;;;;;;;13.55;8.90;;;;;;;;;;5028682;28;20061;-58